sensor_id;sensor_type;location;lat;lon;timestamp;P1;durP1;ratioP1;P2;durP2;ratioP2
20832;SDS011;56075;51.264;7.150;2022-08-07T00:00:45;5.55;;;2.60;;
20832;SDS011;56075;51.264;7.150;2022-08-07T00:03:16;6.28;;;2.28;;
20832;SDS011;56075;51.264;7.150;2022-08-07T00:05:47;7.15;;;2.58;;
20832;SDS011;56075;51.264;7.150;2022-08-07T00:08:22;6.80;;;2.22;;
20832;SDS011;56075;51.264;7.150;2022-08-07T00:10:53;4.90;;;2.42;;
20832;SDS011;56075;51.264;7.150;2022-08-07T00:13:24;4.93;;;1.90;;
20832;SDS011;56075;51.264;7.150;2022-08-07T00:15:55;3.97;;;2.03;;
20832;SDS011;56075;51.264;7.150;2022-08-07T00:18:27;4.65;;;2.00;;
20832;SDS011;56075;51.264;7.150;2022-08-07T00:20:59;3.88;;;1.80;;
20832;SDS011;56075;51.264;7.150;2022-08-07T00:23:33;4.32;;;1.77;;
20832;SDS011;56075;51.264;7.150;2022-08-07T00:26:07;3.47;;;2.00;;
20832;SDS011;56075;51.264;7.150;2022-08-07T00:28:40;2.75;;;1.70;;
20832;SDS011;56075;51.264;7.150;2022-08-07T00:31:11;4.22;;;1.90;;
20832;SDS011;56075;51.264;7.150;2022-08-07T00:33:42;3.10;;;1.80;;
20832;SDS011;56075;51.264;7.150;2022-08-07T00:36:13;3.00;;;1.70;;
20832;SDS011;56075;51.264;7.150;2022-08-07T00:38:44;2.90;;;1.60;;
20832;SDS011;56075;51.264;7.150;2022-08-07T00:41:23;3.50;;;1.80;;
20832;SDS011;56075;51.264;7.150;2022-08-07T00:43:55;2.85;;;1.80;;
20832;SDS011;56075;51.264;7.150;2022-08-07T00:46:26;4.15;;;1.67;;
20832;SDS011;56075;51.264;7.150;2022-08-07T00:48:57;3.65;;;1.90;;
20832;SDS011;56075;51.264;7.150;2022-08-07T00:51:32;5.15;;;2.10;;
20832;SDS011;56075;51.264;7.150;2022-08-07T00:54:03;4.50;;;1.98;;
20832;SDS011;56075;51.264;7.150;2022-08-07T00:56:35;4.30;;;1.80;;
20832;SDS011;56075;51.264;7.150;2022-08-07T00:59:06;5.45;;;2.10;;
20832;SDS011;56075;51.264;7.150;2022-08-07T01:01:37;4.90;;;1.70;;
20832;SDS011;56075;51.264;7.150;2022-08-07T01:04:08;4.40;;;1.80;;
20832;SDS011;56075;51.264;7.150;2022-08-07T01:06:40;7.63;;;3.13;;
20832;SDS011;56075;51.264;7.150;2022-08-07T01:09:11;11.52;;;4.13;;
20832;SDS011;56075;51.264;7.150;2022-08-07T01:11:42;3.42;;;1.88;;
20832;SDS011;56075;51.264;7.150;2022-08-07T01:14:14;6.43;;;1.98;;
20832;SDS011;56075;51.264;7.150;2022-08-07T01:16:45;3.33;;;1.90;;
20832;SDS011;56075;51.264;7.150;2022-08-07T01:19:17;5.82;;;2.03;;
20832;SDS011;56075;51.264;7.150;2022-08-07T01:21:52;6.72;;;1.90;;
20832;SDS011;56075;51.264;7.150;2022-08-07T01:24:27;3.90;;;1.50;;
20832;SDS011;56075;51.264;7.150;2022-08-07T01:27:00;4.22;;;1.58;;
20832;SDS011;56075;51.264;7.150;2022-08-07T01:29:33;4.55;;;1.52;;
20832;SDS011;56075;51.264;7.150;2022-08-07T01:32:04;5.63;;;1.70;;
20832;SDS011;56075;51.264;7.150;2022-08-07T01:34:36;3.03;;;1.60;;
20832;SDS011;56075;51.264;7.150;2022-08-07T01:37:13;3.38;;;1.85;;
20832;SDS011;56075;51.264;7.150;2022-08-07T01:39:47;2.30;;;1.52;;
20832;SDS011;56075;51.264;7.150;2022-08-07T01:42:32;4.35;;;1.83;;
20832;SDS011;56075;51.264;7.150;2022-08-07T01:45:04;5.18;;;2.00;;
20832;SDS011;56075;51.264;7.150;2022-08-07T01:47:38;4.40;;;1.95;;
20832;SDS011;56075;51.264;7.150;2022-08-07T01:50:11;3.50;;;1.73;;
20832;SDS011;56075;51.264;7.150;2022-08-07T01:52:42;4.00;;;1.80;;
20832;SDS011;56075;51.264;7.150;2022-08-07T01:55:17;3.83;;;1.67;;
20832;SDS011;56075;51.264;7.150;2022-08-07T01:57:50;4.50;;;1.80;;
20832;SDS011;56075;51.264;7.150;2022-08-07T02:00:22;3.35;;;1.90;;
20832;SDS011;56075;51.264;7.150;2022-08-07T02:03:00;2.40;;;1.63;;
20832;SDS011;56075;51.264;7.150;2022-08-07T02:05:38;2.95;;;1.90;;
20832;SDS011;56075;51.264;7.150;2022-08-07T02:08:18;2.85;;;1.83;;
20832;SDS011;56075;51.264;7.150;2022-08-07T02:10:53;4.47;;;2.15;;
20832;SDS011;56075;51.264;7.150;2022-08-07T02:13:30;2.83;;;1.88;;
20832;SDS011;56075;51.264;7.150;2022-08-07T02:16:03;3.15;;;2.00;;
20832;SDS011;56075;51.264;7.150;2022-08-07T02:18:36;4.05;;;1.98;;
20832;SDS011;56075;51.264;7.150;2022-08-07T02:21:09;3.63;;;1.80;;
20832;SDS011;56075;51.264;7.150;2022-08-07T02:23:40;6.80;;;2.00;;
20832;SDS011;56075;51.264;7.150;2022-08-07T02:26:13;3.45;;;1.90;;
20832;SDS011;56075;51.264;7.150;2022-08-07T02:28:46;3.53;;;1.90;;
20832;SDS011;56075;51.264;7.150;2022-08-07T02:31:18;5.32;;;2.40;;
20832;SDS011;56075;51.264;7.150;2022-08-07T02:33:53;3.15;;;2.13;;
20832;SDS011;56075;51.264;7.150;2022-08-07T02:36:26;4.95;;;2.05;;
20832;SDS011;56075;51.264;7.150;2022-08-07T02:39:00;4.53;;;1.90;;
20832;SDS011;56075;51.264;7.150;2022-08-07T02:41:34;3.83;;;2.03;;
20832;SDS011;56075;51.264;7.150;2022-08-07T02:44:05;2.83;;;1.90;;
20832;SDS011;56075;51.264;7.150;2022-08-07T02:46:36;5.22;;;2.08;;
20832;SDS011;56075;51.264;7.150;2022-08-07T02:49:08;2.40;;;1.60;;
20832;SDS011;56075;51.264;7.150;2022-08-07T02:51:40;5.00;;;1.60;;
20832;SDS011;56075;51.264;7.150;2022-08-07T02:54:14;3.70;;;1.85;;
20832;SDS011;56075;51.264;7.150;2022-08-07T02:56:47;4.72;;;1.48;;
20832;SDS011;56075;51.264;7.150;2022-08-07T02:59:19;5.90;;;1.80;;
20832;SDS011;56075;51.264;7.150;2022-08-07T03:01:53;3.70;;;1.33;;
20832;SDS011;56075;51.264;7.150;2022-08-07T03:04:25;2.20;;;1.30;;
20832;SDS011;56075;51.264;7.150;2022-08-07T03:06:58;2.85;;;1.45;;
20832;SDS011;56075;51.264;7.150;2022-08-07T03:09:33;3.22;;;1.75;;
20832;SDS011;56075;51.264;7.150;2022-08-07T03:12:04;4.53;;;1.90;;
20832;SDS011;56075;51.264;7.150;2022-08-07T03:14:38;4.28;;;2.17;;
20832;SDS011;56075;51.264;7.150;2022-08-07T03:17:13;3.25;;;1.98;;
20832;SDS011;56075;51.264;7.150;2022-08-07T03:19:46;5.90;;;2.35;;
20832;SDS011;56075;51.264;7.150;2022-08-07T03:22:18;5.72;;;2.22;;
20832;SDS011;56075;51.264;7.150;2022-08-07T03:24:54;3.45;;;2.00;;
20832;SDS011;56075;51.264;7.150;2022-08-07T03:27:26;4.05;;;2.00;;
20832;SDS011;56075;51.264;7.150;2022-08-07T03:29:59;4.75;;;1.95;;
20832;SDS011;56075;51.264;7.150;2022-08-07T03:32:33;4.13;;;1.98;;
20832;SDS011;56075;51.264;7.150;2022-08-07T03:35:11;5.20;;;2.13;;
20832;SDS011;56075;51.264;7.150;2022-08-07T03:37:48;5.80;;;2.08;;
20832;SDS011;56075;51.264;7.150;2022-08-07T03:40:23;4.10;;;1.73;;
20832;SDS011;56075;51.264;7.150;2022-08-07T03:42:56;3.20;;;1.90;;
20832;SDS011;56075;51.264;7.150;2022-08-07T03:45:28;4.55;;;1.90;;
20832;SDS011;56075;51.264;7.150;2022-08-07T03:48:03;4.75;;;2.22;;
20832;SDS011;56075;51.264;7.150;2022-08-07T03:50:35;4.53;;;2.00;;
20832;SDS011;56075;51.264;7.150;2022-08-07T03:53:07;3.38;;;1.67;;
20832;SDS011;56075;51.264;7.150;2022-08-07T03:55:41;3.08;;;1.75;;
20832;SDS011;56075;51.264;7.150;2022-08-07T03:58:13;3.05;;;1.90;;
20832;SDS011;56075;51.264;7.150;2022-08-07T04:00:45;2.17;;;1.50;;
20832;SDS011;56075;51.264;7.150;2022-08-07T04:03:18;2.97;;;1.60;;
20832;SDS011;56075;51.264;7.150;2022-08-07T04:05:50;3.60;;;1.35;;
20832;SDS011;56075;51.264;7.150;2022-08-07T04:08:25;3.05;;;1.73;;
20832;SDS011;56075;51.264;7.150;2022-08-07T04:10:57;3.35;;;1.60;;
20832;SDS011;56075;51.264;7.150;2022-08-07T04:13:28;2.90;;;1.52;;
20832;SDS011;56075;51.264;7.150;2022-08-07T04:16:01;2.83;;;1.60;;
20832;SDS011;56075;51.264;7.150;2022-08-07T04:18:32;4.80;;;1.70;;
20832;SDS011;56075;51.264;7.150;2022-08-07T04:21:04;3.40;;;1.50;;
20832;SDS011;56075;51.264;7.150;2022-08-07T04:23:36;2.78;;;1.60;;
20832;SDS011;56075;51.264;7.150;2022-08-07T04:26:08;2.97;;;1.70;;
20832;SDS011;56075;51.264;7.150;2022-08-07T04:28:39;4.85;;;1.63;;
20832;SDS011;56075;51.264;7.150;2022-08-07T04:31:11;3.95;;;1.60;;
20832;SDS011;56075;51.264;7.150;2022-08-07T04:33:44;3.40;;;1.42;;
20832;SDS011;56075;51.264;7.150;2022-08-07T04:36:16;3.15;;;1.40;;
20832;SDS011;56075;51.264;7.150;2022-08-07T04:38:47;3.67;;;1.90;;
20832;SDS011;56075;51.264;7.150;2022-08-07T04:41:19;3.85;;;1.80;;
20832;SDS011;56075;51.264;7.150;2022-08-07T04:43:53;3.83;;;1.60;;
20832;SDS011;56075;51.264;7.150;2022-08-07T04:46:44;2.83;;;1.50;;
20832;SDS011;56075;51.264;7.150;2022-08-07T04:52:11;2.45;;;1.50;;
20832;SDS011;56075;51.264;7.150;2022-08-07T04:54:54;2.72;;;1.40;;
20832;SDS011;56075;51.264;7.150;2022-08-07T04:57:46;2.15;;;1.50;;
20832;SDS011;56075;51.264;7.150;2022-08-07T05:00:24;4.05;;;1.67;;
20832;SDS011;56075;51.264;7.150;2022-08-07T05:03:17;4.78;;;1.63;;
20832;SDS011;56075;51.264;7.150;2022-08-07T05:08:39;2.92;;;1.70;;
20832;SDS011;56075;51.264;7.150;2022-08-07T05:11:47;3.92;;;2.10;;
20832;SDS011;56075;51.264;7.150;2022-08-07T05:14:24;3.20;;;1.73;;
20832;SDS011;56075;51.264;7.150;2022-08-07T05:17:01;3.60;;;1.90;;
20832;SDS011;56075;51.264;7.150;2022-08-07T05:19:37;2.78;;;1.77;;
20832;SDS011;56075;51.264;7.150;2022-08-07T05:22:13;2.75;;;1.70;;
20832;SDS011;56075;51.264;7.150;2022-08-07T05:24:47;4.22;;;2.00;;
20832;SDS011;56075;51.264;7.150;2022-08-07T05:27:21;2.70;;;1.88;;
20832;SDS011;56075;51.264;7.150;2022-08-07T05:29:54;3.47;;;1.98;;
20832;SDS011;56075;51.264;7.150;2022-08-07T05:32:27;4.43;;;1.67;;
20832;SDS011;56075;51.264;7.150;2022-08-07T05:34:59;5.05;;;1.90;;
20832;SDS011;56075;51.264;7.150;2022-08-07T05:37:32;3.28;;;1.73;;
20832;SDS011;56075;51.264;7.150;2022-08-07T05:40:09;2.63;;;1.52;;
20832;SDS011;56075;51.264;7.150;2022-08-07T05:42:41;2.08;;;1.45;;
20832;SDS011;56075;51.264;7.150;2022-08-07T05:45:14;2.60;;;1.30;;
20832;SDS011;56075;51.264;7.150;2022-08-07T05:47:47;2.20;;;1.50;;
20832;SDS011;56075;51.264;7.150;2022-08-07T05:50:18;2.53;;;1.55;;
20832;SDS011;56075;51.264;7.150;2022-08-07T05:52:51;3.53;;;1.42;;
20832;SDS011;56075;51.264;7.150;2022-08-07T05:55:22;2.05;;;1.30;;
20832;SDS011;56075;51.264;7.150;2022-08-07T05:57:54;3.75;;;1.40;;
20832;SDS011;56075;51.264;7.150;2022-08-07T06:00:27;2.83;;;1.35;;
20832;SDS011;56075;51.264;7.150;2022-08-07T06:03:04;3.35;;;1.70;;
20832;SDS011;56075;51.264;7.150;2022-08-07T06:05:38;6.40;;;3.15;;
20832;SDS011;56075;51.264;7.150;2022-08-07T06:08:13;3.30;;;1.60;;
20832;SDS011;56075;51.264;7.150;2022-08-07T06:10:48;4.60;;;1.40;;
20832;SDS011;56075;51.264;7.150;2022-08-07T06:13:20;2.53;;;1.30;;
20832;SDS011;56075;51.264;7.150;2022-08-07T06:15:52;2.90;;;1.10;;
20832;SDS011;56075;51.264;7.150;2022-08-07T06:18:30;4.97;;;1.45;;
20832;SDS011;56075;51.264;7.150;2022-08-07T06:21:03;2.83;;;1.27;;
20832;SDS011;56075;51.264;7.150;2022-08-07T06:23:37;4.03;;;1.27;;
20832;SDS011;56075;51.264;7.150;2022-08-07T06:26:10;2.88;;;1.17;;
20832;SDS011;56075;51.264;7.150;2022-08-07T06:28:47;1.85;;;1.10;;
20832;SDS011;56075;51.264;7.150;2022-08-07T06:31:20;2.28;;;1.15;;
20832;SDS011;56075;51.264;7.150;2022-08-07T06:33:52;3.58;;;1.02;;
20832;SDS011;56075;51.264;7.150;2022-08-07T06:36:24;3.13;;;1.20;;
20832;SDS011;56075;51.264;7.150;2022-08-07T06:38:59;2.88;;;0.93;;
20832;SDS011;56075;51.264;7.150;2022-08-07T06:41:44;3.28;;;0.88;;
20832;SDS011;56075;51.264;7.150;2022-08-07T06:44:18;1.05;;;0.80;;
20832;SDS011;56075;51.264;7.150;2022-08-07T06:46:51;4.13;;;1.50;;
20832;SDS011;56075;51.264;7.150;2022-08-07T06:49:22;3.28;;;1.70;;
20832;SDS011;56075;51.264;7.150;2022-08-07T06:51:54;1.35;;;1.00;;
20832;SDS011;56075;51.264;7.150;2022-08-07T06:54:28;4.63;;;1.40;;
20832;SDS011;56075;51.264;7.150;2022-08-07T06:57:01;3.70;;;1.05;;
20832;SDS011;56075;51.264;7.150;2022-08-07T06:59:39;1.33;;;0.90;;
20832;SDS011;56075;51.264;7.150;2022-08-07T07:02:17;2.88;;;1.10;;
20832;SDS011;56075;51.264;7.150;2022-08-07T07:04:50;1.58;;;0.68;;
20832;SDS011;56075;51.264;7.150;2022-08-07T07:07:24;1.27;;;0.60;;
20832;SDS011;56075;51.264;7.150;2022-08-07T07:09:56;0.70;;;0.60;;
20832;SDS011;56075;51.264;7.150;2022-08-07T07:12:47;5.10;;;1.40;;
20832;SDS011;56075;51.264;7.150;2022-08-07T07:15:22;3.22;;;1.75;;
20832;SDS011;56075;51.264;7.150;2022-08-07T07:18:16;2.30;;;1.13;;
20832;SDS011;56075;51.264;7.150;2022-08-07T07:20:55;3.35;;;0.70;;
20832;SDS011;56075;51.264;7.150;2022-08-07T07:23:31;1.45;;;0.80;;
20832;SDS011;56075;51.264;7.150;2022-08-07T07:26:04;0.80;;;0.60;;
20832;SDS011;56075;51.264;7.150;2022-08-07T07:28:41;2.15;;;0.82;;
20832;SDS011;56075;51.264;7.150;2022-08-07T07:34:03;2.25;;;1.40;;
20832;SDS011;56075;51.264;7.150;2022-08-07T07:36:38;1.50;;;0.70;;
20832;SDS011;56075;51.264;7.150;2022-08-07T07:39:11;2.50;;;0.82;;
20832;SDS011;56075;51.264;7.150;2022-08-07T07:41:47;1.23;;;0.90;;
20832;SDS011;56075;51.264;7.150;2022-08-07T07:44:20;1.98;;;0.70;;
20832;SDS011;56075;51.264;7.150;2022-08-07T07:46:52;3.20;;;1.02;;
20832;SDS011;56075;51.264;7.150;2022-08-07T07:49:25;1.30;;;0.60;;
20832;SDS011;56075;51.264;7.150;2022-08-07T07:51:58;0.82;;;0.60;;
20832;SDS011;56075;51.264;7.150;2022-08-07T07:54:31;2.10;;;1.10;;
20832;SDS011;56075;51.264;7.150;2022-08-07T07:57:04;2.63;;;1.30;;
20832;SDS011;56075;51.264;7.150;2022-08-07T07:59:37;1.45;;;0.88;;
20832;SDS011;56075;51.264;7.150;2022-08-07T08:02:10;3.22;;;1.10;;
20832;SDS011;56075;51.264;7.150;2022-08-07T08:04:45;1.98;;;0.90;;
20832;SDS011;56075;51.264;7.150;2022-08-07T08:07:17;2.17;;;1.38;;
20832;SDS011;56075;51.264;7.150;2022-08-07T08:09:49;3.42;;;1.10;;
20832;SDS011;56075;51.264;7.150;2022-08-07T08:12:22;2.00;;;0.47;;
20832;SDS011;56075;51.264;7.150;2022-08-07T08:14:54;1.27;;;0.68;;
20832;SDS011;56075;51.264;7.150;2022-08-07T08:17:25;4.45;;;0.70;;
20832;SDS011;56075;51.264;7.150;2022-08-07T08:19:58;0.70;;;0.50;;
20832;SDS011;56075;51.264;7.150;2022-08-07T08:22:33;2.47;;;0.60;;
20832;SDS011;56075;51.264;7.150;2022-08-07T08:25:32;1.20;;;0.68;;
20832;SDS011;56075;51.264;7.150;2022-08-07T08:28:25;2.63;;;0.50;;
20832;SDS011;56075;51.264;7.150;2022-08-07T08:30:58;1.33;;;0.50;;
20832;SDS011;56075;51.264;7.150;2022-08-07T08:33:32;2.78;;;0.50;;
20832;SDS011;56075;51.264;7.150;2022-08-07T08:36:04;0.40;;;0.30;;
20832;SDS011;56075;51.264;7.150;2022-08-07T08:38:39;2.42;;;0.60;;
20832;SDS011;56075;51.264;7.150;2022-08-07T08:41:17;1.98;;;0.50;;
20832;SDS011;56075;51.264;7.150;2022-08-07T08:43:58;2.17;;;0.50;;
20832;SDS011;56075;51.264;7.150;2022-08-07T08:49:39;0.88;;;0.40;;
20832;SDS011;56075;51.264;7.150;2022-08-07T08:52:34;0.70;;;0.50;;
20832;SDS011;56075;51.264;7.150;2022-08-07T08:55:23;2.35;;;0.60;;
20832;SDS011;56075;51.264;7.150;2022-08-07T08:58:04;1.00;;;0.60;;
20832;SDS011;56075;51.264;7.150;2022-08-07T09:00:48;2.45;;;0.40;;
20832;SDS011;56075;51.264;7.150;2022-08-07T09:03:34;1.02;;;0.65;;
20832;SDS011;56075;51.264;7.150;2022-08-07T09:09:34;1.63;;;0.80;;
20832;SDS011;56075;51.264;7.150;2022-08-07T09:18:19;2.38;;;0.90;;
20832;SDS011;56075;51.264;7.150;2022-08-07T09:35:05;1.75;;;0.40;;
20832;SDS011;56075;51.264;7.150;2022-08-07T09:40:59;0.55;;;0.30;;
20832;SDS011;56075;51.264;7.150;2022-08-07T09:43:47;4.25;;;0.40;;
20832;SDS011;56075;51.264;7.150;2022-08-07T09:46:35;0.32;;;0.32;;
20832;SDS011;56075;51.264;7.150;2022-08-07T09:49:32;0.57;;;0.50;;
20832;SDS011;56075;51.264;7.150;2022-08-07T10:00:20;0.65;;;0.47;;
20832;SDS011;56075;51.264;7.150;2022-08-07T10:05:53;0.68;;;0.47;;
20832;SDS011;56075;51.264;7.150;2022-08-07T10:16:53;3.00;;;0.90;;
20832;SDS011;56075;51.264;7.150;2022-08-07T10:19:49;1.48;;;0.60;;
20832;SDS011;56075;51.264;7.150;2022-08-07T10:42:21;1.45;;;0.60;;
20832;SDS011;56075;51.264;7.150;2022-08-07T10:45:26;1.85;;;0.60;;
20832;SDS011;56075;51.264;7.150;2022-08-07T10:51:04;2.42;;;0.73;;
20832;SDS011;56075;51.264;7.150;2022-08-07T10:53:44;2.08;;;0.70;;
20832;SDS011;56075;51.264;7.150;2022-08-07T11:01:59;1.30;;;0.55;;
20832;SDS011;56075;51.264;7.150;2022-08-07T11:07:37;0.80;;;0.50;;
20832;SDS011;56075;51.264;7.150;2022-08-07T11:10:40;1.58;;;0.55;;
20832;SDS011;56075;51.264;7.150;2022-08-07T11:15:56;1.70;;;0.60;;
20832;SDS011;56075;51.264;7.150;2022-08-07T11:18:50;1.30;;;0.40;;
20832;SDS011;56075;51.264;7.150;2022-08-07T11:21:38;0.95;;;0.52;;
20832;SDS011;56075;51.264;7.150;2022-08-07T11:29:48;1.77;;;0.55;;
20832;SDS011;56075;51.264;7.150;2022-08-07T11:32:29;1.63;;;0.50;;
20832;SDS011;56075;51.264;7.150;2022-08-07T11:38:17;1.17;;;0.50;;
20832;SDS011;56075;51.264;7.150;2022-08-07T11:41:28;6.47;;;1.70;;
20832;SDS011;56075;51.264;7.150;2022-08-07T11:44:12;2.67;;;1.00;;
20832;SDS011;56075;51.264;7.150;2022-08-07T11:52:51;1.65;;;0.50;;
20832;SDS011;56075;51.264;7.150;2022-08-07T12:07:37;3.33;;;0.63;;
20832;SDS011;56075;51.264;7.150;2022-08-07T12:10:16;1.13;;;0.50;;
20832;SDS011;56075;51.264;7.150;2022-08-07T12:13:14;1.95;;;0.50;;
20832;SDS011;56075;51.264;7.150;2022-08-07T12:15:58;1.67;;;0.70;;
20832;SDS011;56075;51.264;7.150;2022-08-07T12:27:47;1.38;;;0.80;;
20832;SDS011;56075;51.264;7.150;2022-08-07T12:30:23;3.25;;;1.65;;
20832;SDS011;56075;51.264;7.150;2022-08-07T12:32:59;1.15;;;0.50;;
20832;SDS011;56075;51.264;7.150;2022-08-07T12:35:35;1.75;;;0.80;;
20832;SDS011;56075;51.264;7.150;2022-08-07T12:38:07;2.78;;;1.10;;
20832;SDS011;56075;51.264;7.150;2022-08-07T12:40:41;1.50;;;0.65;;
20832;SDS011;56075;51.264;7.150;2022-08-07T12:43:15;1.90;;;0.93;;
20832;SDS011;56075;51.264;7.150;2022-08-07T12:46:00;0.73;;;0.60;;
20832;SDS011;56075;51.264;7.150;2022-08-07T12:48:56;1.52;;;0.63;;
20832;SDS011;56075;51.264;7.150;2022-08-07T12:51:50;2.38;;;0.80;;
20832;SDS011;56075;51.264;7.150;2022-08-07T12:54:38;0.95;;;0.40;;
20832;SDS011;56075;51.264;7.150;2022-08-07T12:57:13;2.55;;;0.80;;
20832;SDS011;56075;51.264;7.150;2022-08-07T12:59:48;1.77;;;0.77;;
20832;SDS011;56075;51.264;7.150;2022-08-07T13:11:22;3.58;;;0.77;;
20832;SDS011;56075;51.264;7.150;2022-08-07T13:14:25;1.48;;;0.60;;
20832;SDS011;56075;51.264;7.150;2022-08-07T13:17:37;1.02;;;0.70;;
20832;SDS011;56075;51.264;7.150;2022-08-07T13:20:19;2.30;;;0.63;;
20832;SDS011;56075;51.264;7.150;2022-08-07T13:23:09;2.28;;;1.00;;
20832;SDS011;56075;51.264;7.150;2022-08-07T13:28:55;5.30;;;1.90;;
20832;SDS011;56075;51.264;7.150;2022-08-07T13:31:44;0.73;;;0.65;;
20832;SDS011;56075;51.264;7.150;2022-08-07T13:37:42;2.38;;;0.50;;
20832;SDS011;56075;51.264;7.150;2022-08-07T13:40:36;4.30;;;2.67;;
20832;SDS011;56075;51.264;7.150;2022-08-07T13:43:32;2.08;;;1.40;;
20832;SDS011;56075;51.264;7.150;2022-08-07T13:46:12;2.28;;;1.30;;
20832;SDS011;56075;51.264;7.150;2022-08-07T13:48:47;3.05;;;1.63;;
20832;SDS011;56075;51.264;7.150;2022-08-07T13:51:22;3.28;;;1.30;;
20832;SDS011;56075;51.264;7.150;2022-08-07T13:53:56;2.05;;;1.17;;
20832;SDS011;56075;51.264;7.150;2022-08-07T13:56:33;0.70;;;0.50;;
20832;SDS011;56075;51.264;7.150;2022-08-07T13:59:10;1.70;;;0.90;;
20832;SDS011;56075;51.264;7.150;2022-08-07T14:01:46;1.55;;;0.90;;
20832;SDS011;56075;51.264;7.150;2022-08-07T14:04:23;3.90;;;1.40;;
20832;SDS011;56075;51.264;7.150;2022-08-07T14:06:56;1.40;;;0.85;;
20832;SDS011;56075;51.264;7.150;2022-08-07T14:09:35;2.25;;;0.80;;
20832;SDS011;56075;51.264;7.150;2022-08-07T14:12:12;2.72;;;0.90;;
20832;SDS011;56075;51.264;7.150;2022-08-07T14:14:54;1.42;;;0.70;;
20832;SDS011;56075;51.264;7.150;2022-08-07T14:17:33;2.65;;;0.70;;
20832;SDS011;56075;51.264;7.150;2022-08-07T14:20:21;0.98;;;0.50;;
20832;SDS011;56075;51.264;7.150;2022-08-07T14:23:00;1.08;;;0.80;;
20832;SDS011;56075;51.264;7.150;2022-08-07T14:25:36;0.95;;;0.60;;
20832;SDS011;56075;51.264;7.150;2022-08-07T14:28:10;0.82;;;0.60;;
20832;SDS011;56075;51.264;7.150;2022-08-07T14:30:45;1.73;;;0.82;;
20832;SDS011;56075;51.264;7.150;2022-08-07T14:33:17;1.00;;;0.70;;
20832;SDS011;56075;51.264;7.150;2022-08-07T14:35:54;1.20;;;0.77;;
20832;SDS011;56075;51.264;7.150;2022-08-07T14:38:27;1.45;;;0.60;;
20832;SDS011;56075;51.264;7.150;2022-08-07T14:41:04;0.82;;;0.40;;
20832;SDS011;56075;51.264;7.150;2022-08-07T14:43:37;2.60;;;0.70;;
20832;SDS011;56075;51.264;7.150;2022-08-07T14:46:11;3.90;;;0.82;;
20832;SDS011;56075;51.264;7.150;2022-08-07T14:48:48;0.90;;;0.70;;
20832;SDS011;56075;51.264;7.150;2022-08-07T14:51:22;1.67;;;0.60;;
20832;SDS011;56075;51.264;7.150;2022-08-07T14:53:58;1.95;;;0.70;;
20832;SDS011;56075;51.264;7.150;2022-08-07T14:56:32;6.10;;;0.80;;
20832;SDS011;56075;51.264;7.150;2022-08-07T14:59:08;1.48;;;0.70;;
20832;SDS011;56075;51.264;7.150;2022-08-07T15:01:41;1.88;;;1.10;;
20832;SDS011;56075;51.264;7.150;2022-08-07T15:04:15;1.83;;;0.70;;
20832;SDS011;56075;51.264;7.150;2022-08-07T15:06:48;2.78;;;0.70;;
20832;SDS011;56075;51.264;7.150;2022-08-07T15:09:20;1.15;;;0.65;;
20832;SDS011;56075;51.264;7.150;2022-08-07T15:11:53;1.60;;;0.57;;
20832;SDS011;56075;51.264;7.150;2022-08-07T15:14:30;0.50;;;0.50;;
20832;SDS011;56075;51.264;7.150;2022-08-07T15:17:10;2.28;;;0.88;;
20832;SDS011;56075;51.264;7.150;2022-08-07T15:19:48;1.77;;;0.90;;
20832;SDS011;56075;51.264;7.150;2022-08-07T15:22:24;1.77;;;0.80;;
20832;SDS011;56075;51.264;7.150;2022-08-07T15:24:59;1.25;;;0.70;;
20832;SDS011;56075;51.264;7.150;2022-08-07T15:27:38;1.23;;;0.57;;
20832;SDS011;56075;51.264;7.150;2022-08-07T15:30:11;0.85;;;0.60;;
20832;SDS011;56075;51.264;7.150;2022-08-07T15:32:46;1.98;;;0.90;;
20832;SDS011;56075;51.264;7.150;2022-08-07T15:35:20;1.70;;;1.20;;
20832;SDS011;56075;51.264;7.150;2022-08-07T15:37:54;2.75;;;1.40;;
20832;SDS011;56075;51.264;7.150;2022-08-07T15:40:28;1.50;;;1.25;;
20832;SDS011;56075;51.264;7.150;2022-08-07T15:45:43;1.58;;;0.90;;
20832;SDS011;56075;51.264;7.150;2022-08-07T15:48:28;1.73;;;0.80;;
20832;SDS011;56075;51.264;7.150;2022-08-07T15:51:06;2.08;;;1.13;;
20832;SDS011;56075;51.264;7.150;2022-08-07T15:53:46;1.48;;;1.17;;
20832;SDS011;56075;51.264;7.150;2022-08-07T15:56:31;1.98;;;1.10;;
20832;SDS011;56075;51.264;7.150;2022-08-07T15:59:05;2.47;;;1.08;;
20832;SDS011;56075;51.264;7.150;2022-08-07T16:01:43;3.05;;;1.00;;
20832;SDS011;56075;51.264;7.150;2022-08-07T16:04:19;3.35;;;1.08;;
20832;SDS011;56075;51.264;7.150;2022-08-07T16:06:58;2.40;;;1.00;;
20832;SDS011;56075;51.264;7.150;2022-08-07T16:09:35;3.35;;;1.65;;
20832;SDS011;56075;51.264;7.150;2022-08-07T16:12:33;3.97;;;1.45;;
20832;SDS011;56075;51.264;7.150;2022-08-07T16:15:28;2.00;;;1.13;;
20832;SDS011;56075;51.264;7.150;2022-08-07T16:20:47;5.03;;;1.10;;
20832;SDS011;56075;51.264;7.150;2022-08-07T16:26:09;1.85;;;1.15;;
20832;SDS011;56075;51.264;7.150;2022-08-07T16:32:07;4.07;;;2.00;;
20832;SDS011;56075;51.264;7.150;2022-08-07T16:34:47;2.78;;;0.90;;
20832;SDS011;56075;51.264;7.150;2022-08-07T16:37:32;4.10;;;2.10;;
20832;SDS011;56075;51.264;7.150;2022-08-07T16:46:15;1.42;;;0.73;;
20832;SDS011;56075;51.264;7.150;2022-08-07T16:54:57;3.50;;;0.93;;
20832;SDS011;56075;51.264;7.150;2022-08-07T16:57:35;3.20;;;0.80;;
20832;SDS011;56075;51.264;7.150;2022-08-07T17:00:23;1.90;;;0.90;;
20832;SDS011;56075;51.264;7.150;2022-08-07T17:12:27;1.70;;;1.00;;
20832;SDS011;56075;51.264;7.150;2022-08-07T17:20:31;2.38;;;1.40;;
20832;SDS011;56075;51.264;7.150;2022-08-07T17:26:16;2.05;;;1.10;;
20832;SDS011;56075;51.264;7.150;2022-08-07T17:34:12;1.92;;;0.93;;
20832;SDS011;56075;51.264;7.150;2022-08-07T17:36:53;6.57;;;2.75;;
20832;SDS011;56075;51.264;7.150;2022-08-07T17:42:53;3.70;;;1.13;;
20832;SDS011;56075;51.264;7.150;2022-08-07T17:49:00;2.90;;;0.90;;
20832;SDS011;56075;51.264;7.150;2022-08-07T17:52:10;3.20;;;1.17;;
20832;SDS011;56075;51.264;7.150;2022-08-07T17:54:50;2.00;;;1.20;;
20832;SDS011;56075;51.264;7.150;2022-08-07T18:00:17;1.48;;;0.95;;
20832;SDS011;56075;51.264;7.150;2022-08-07T18:02:52;1.70;;;1.02;;
20832;SDS011;56075;51.264;7.150;2022-08-07T18:05:43;3.40;;;0.90;;
20832;SDS011;56075;51.264;7.150;2022-08-07T18:13:53;1.58;;;0.98;;
20832;SDS011;56075;51.264;7.150;2022-08-07T18:19:08;2.83;;;1.48;;
20832;SDS011;56075;51.264;7.150;2022-08-07T18:21:56;1.85;;;1.00;;
20832;SDS011;56075;51.264;7.150;2022-08-07T18:24:36;3.78;;;1.02;;
20832;SDS011;56075;51.264;7.150;2022-08-07T18:27:27;1.48;;;0.80;;
20832;SDS011;56075;51.264;7.150;2022-08-07T18:41:53;3.15;;;1.50;;
20832;SDS011;56075;51.264;7.150;2022-08-07T18:50:03;2.20;;;1.10;;
20832;SDS011;56075;51.264;7.150;2022-08-07T18:56:31;2.10;;;1.20;;
20832;SDS011;56075;51.264;7.150;2022-08-07T19:01:56;3.28;;;1.48;;
20832;SDS011;56075;51.264;7.150;2022-08-07T19:07:40;2.28;;;1.15;;
20832;SDS011;56075;51.264;7.150;2022-08-07T19:10:28;4.15;;;1.20;;
20832;SDS011;56075;51.264;7.150;2022-08-07T19:16:00;3.70;;;2.00;;
20832;SDS011;56075;51.264;7.150;2022-08-07T19:18:46;4.22;;;1.35;;
20832;SDS011;56075;51.264;7.150;2022-08-07T19:21:37;1.77;;;1.08;;
20832;SDS011;56075;51.264;7.150;2022-08-07T19:24:25;2.08;;;1.40;;
20832;SDS011;56075;51.264;7.150;2022-08-07T19:27:20;3.85;;;2.20;;
20832;SDS011;56075;51.264;7.150;2022-08-07T19:29:55;4.05;;;1.70;;
20832;SDS011;56075;51.264;7.150;2022-08-07T19:32:28;2.58;;;1.60;;
20832;SDS011;56075;51.264;7.150;2022-08-07T19:35:05;5.00;;;1.85;;
20832;SDS011;56075;51.264;7.150;2022-08-07T19:37:42;5.78;;;3.50;;
20832;SDS011;56075;51.264;7.150;2022-08-07T19:40:16;5.40;;;2.70;;
20832;SDS011;56075;51.264;7.150;2022-08-07T19:42:50;3.60;;;1.80;;
20832;SDS011;56075;51.264;7.150;2022-08-07T19:45:21;3.00;;;1.25;;